sensor_id;sensor_type;location;lat;lon;timestamp;P1;durP1;ratioP1;P2;durP2;ratioP2
5730;SDS011;2890;51.950;7.668;2023-02-21T00:02:28;55.07;;;31.27;;
5730;SDS011;2890;51.950;7.668;2023-02-21T00:05:12;57.20;;;33.13;;
5730;SDS011;2890;51.950;7.668;2023-02-21T00:07:56;59.17;;;32.63;;
5730;SDS011;2890;51.950;7.668;2023-02-21T00:10:40;56.43;;;32.03;;
5730;SDS011;2890;51.950;7.668;2023-02-21T00:13:25;55.63;;;32.03;;
5730;SDS011;2890;51.950;7.668;2023-02-21T00:16:12;59.50;;;32.27;;
5730;SDS011;2890;51.950;7.668;2023-02-21T00:18:57;63.60;;;33.30;;
5730;SDS011;2890;51.950;7.668;2023-02-21T00:21:41;59.40;;;34.67;;
5730;SDS011;2890;51.950;7.668;2023-02-21T00:24:25;62.17;;;32.50;;
5730;SDS011;2890;51.950;7.668;2023-02-21T00:27:10;58.70;;;33.90;;
5730;SDS011;2890;51.950;7.668;2023-02-21T00:29:55;57.23;;;32.13;;
5730;SDS011;2890;51.950;7.668;2023-02-21T00:32:39;56.70;;;31.50;;
5730;SDS011;2890;51.950;7.668;2023-02-21T00:35:23;55.23;;;33.80;;
5730;SDS011;2890;51.950;7.668;2023-02-21T00:38:07;58.43;;;33.73;;
5730;SDS011;2890;51.950;7.668;2023-02-21T00:40:53;60.17;;;33.23;;
5730;SDS011;2890;51.950;7.668;2023-02-21T00:43:37;60.73;;;33.37;;
5730;SDS011;2890;51.950;7.668;2023-02-21T00:46:22;58.57;;;33.80;;
5730;SDS011;2890;51.950;7.668;2023-02-21T00:49:08;62.93;;;34.30;;
5730;SDS011;2890;51.950;7.668;2023-02-21T00:51:53;57.20;;;31.93;;
5730;SDS011;2890;51.950;7.668;2023-02-21T00:54:43;58.93;;;33.63;;
5730;SDS011;2890;51.950;7.668;2023-02-21T00:57:29;65.23;;;36.13;;
5730;SDS011;2890;51.950;7.668;2023-02-21T01:00:16;61.70;;;35.23;;
5730;SDS011;2890;51.950;7.668;2023-02-21T01:03:04;63.00;;;34.53;;
5730;SDS011;2890;51.950;7.668;2023-02-21T01:05:52;62.37;;;33.83;;
5730;SDS011;2890;51.950;7.668;2023-02-21T01:08:39;62.10;;;34.33;;
5730;SDS011;2890;51.950;7.668;2023-02-21T01:11:24;65.17;;;36.07;;
5730;SDS011;2890;51.950;7.668;2023-02-21T01:14:10;68.30;;;35.83;;
5730;SDS011;2890;51.950;7.668;2023-02-21T01:16:55;61.80;;;33.73;;
5730;SDS011;2890;51.950;7.668;2023-02-21T01:19:41;68.63;;;36.47;;
5730;SDS011;2890;51.950;7.668;2023-02-21T01:22:26;63.93;;;36.30;;
5730;SDS011;2890;51.950;7.668;2023-02-21T01:25:10;71.37;;;37.50;;
5730;SDS011;2890;51.950;7.668;2023-02-21T01:27:54;67.17;;;36.50;;
5730;SDS011;2890;51.950;7.668;2023-02-21T01:30:38;67.87;;;36.77;;
5730;SDS011;2890;51.950;7.668;2023-02-21T01:33:22;66.13;;;36.00;;
5730;SDS011;2890;51.950;7.668;2023-02-21T01:36:08;67.67;;;37.33;;
5730;SDS011;2890;51.950;7.668;2023-02-21T01:38:53;69.03;;;36.70;;
5730;SDS011;2890;51.950;7.668;2023-02-21T01:41:38;69.07;;;36.70;;
5730;SDS011;2890;51.950;7.668;2023-02-21T01:44:31;65.53;;;35.97;;
5730;SDS011;2890;51.950;7.668;2023-02-21T01:47:18;69.23;;;36.07;;
5730;SDS011;2890;51.950;7.668;2023-02-21T01:50:05;69.17;;;38.20;;
5730;SDS011;2890;51.950;7.668;2023-02-21T01:52:53;64.50;;;35.30;;
5730;SDS011;2890;51.950;7.668;2023-02-21T01:55:38;60.70;;;36.93;;
5730;SDS011;2890;51.950;7.668;2023-02-21T01:58:23;71.67;;;39.27;;
5730;SDS011;2890;51.950;7.668;2023-02-21T02:01:09;66.30;;;35.47;;
5730;SDS011;2890;51.950;7.668;2023-02-21T02:03:55;70.60;;;37.40;;
5730;SDS011;2890;51.950;7.668;2023-02-21T02:06:40;69.53;;;37.53;;
5730;SDS011;2890;51.950;7.668;2023-02-21T02:09:25;68.90;;;37.10;;
5730;SDS011;2890;51.950;7.668;2023-02-21T02:12:17;67.63;;;37.90;;
5730;SDS011;2890;51.950;7.668;2023-02-21T02:15:10;75.87;;;38.30;;
5730;SDS011;2890;51.950;7.668;2023-02-21T02:17:44;68.73;;;38.73;;
5730;SDS011;2890;51.950;7.668;2023-02-21T02:26:29;69.13;;;36.97;;
5730;SDS011;2890;51.950;7.668;2023-02-21T02:29:20;69.30;;;39.77;;
5730;SDS011;2890;51.950;7.668;2023-02-21T02:34:56;71.77;;;36.70;;
5730;SDS011;2890;51.950;7.668;2023-02-21T02:37:29;65.73;;;37.33;;
5730;SDS011;2890;51.950;7.668;2023-02-21T02:39:59;72.70;;;39.17;;
5730;SDS011;2890;51.950;7.668;2023-02-21T02:42:32;74.13;;;39.50;;
5730;SDS011;2890;51.950;7.668;2023-02-21T02:45:04;76.90;;;40.80;;
5730;SDS011;2890;51.950;7.668;2023-02-21T02:47:35;77.63;;;41.47;;
5730;SDS011;2890;51.950;7.668;2023-02-21T02:50:04;74.47;;;39.67;;
5730;SDS011;2890;51.950;7.668;2023-02-21T02:52:32;79.10;;;41.07;;
5730;SDS011;2890;51.950;7.668;2023-02-21T02:55:00;70.10;;;37.30;;
5730;SDS011;2890;51.950;7.668;2023-02-21T02:57:27;74.10;;;39.73;;
5730;SDS011;2890;51.950;7.668;2023-02-21T03:00:02;73.93;;;38.17;;
5730;SDS011;2890;51.950;7.668;2023-02-21T03:02:35;74.73;;;40.53;;
5730;SDS011;2890;51.950;7.668;2023-02-21T03:05:17;73.47;;;38.13;;
5730;SDS011;2890;51.950;7.668;2023-02-21T03:07:52;75.80;;;39.67;;
5730;SDS011;2890;51.950;7.668;2023-02-21T03:10:26;72.33;;;38.67;;
5730;SDS011;2890;51.950;7.668;2023-02-21T03:12:59;70.63;;;40.07;;
5730;SDS011;2890;51.950;7.668;2023-02-21T03:15:30;74.90;;;40.43;;
5730;SDS011;2890;51.950;7.668;2023-02-21T03:18:00;81.00;;;40.37;;
5730;SDS011;2890;51.950;7.668;2023-02-21T03:20:30;86.37;;;42.00;;
5730;SDS011;2890;51.950;7.668;2023-02-21T03:22:58;74.87;;;40.07;;
5730;SDS011;2890;51.950;7.668;2023-02-21T03:25:27;83.93;;;40.60;;
5730;SDS011;2890;51.950;7.668;2023-02-21T03:27:54;79.97;;;39.33;;
5730;SDS011;2890;51.950;7.668;2023-02-21T03:30:20;77.90;;;40.27;;
5730;SDS011;2890;51.950;7.668;2023-02-21T03:32:48;74.20;;;39.13;;
5730;SDS011;2890;51.950;7.668;2023-02-21T03:35:16;74.17;;;40.17;;
5730;SDS011;2890;51.950;7.668;2023-02-21T03:37:44;75.23;;;39.33;;
5730;SDS011;2890;51.950;7.668;2023-02-21T03:40:13;83.10;;;41.93;;
5730;SDS011;2890;51.950;7.668;2023-02-21T03:42:41;83.73;;;40.27;;
5730;SDS011;2890;51.950;7.668;2023-02-21T03:45:08;87.97;;;43.13;;
5730;SDS011;2890;51.950;7.668;2023-02-21T03:47:34;82.90;;;40.03;;
5730;SDS011;2890;51.950;7.668;2023-02-21T03:50:01;76.63;;;40.37;;
5730;SDS011;2890;51.950;7.668;2023-02-21T03:52:29;77.23;;;39.97;;
5730;SDS011;2890;51.950;7.668;2023-02-21T03:54:56;81.20;;;41.60;;
5730;SDS011;2890;51.950;7.668;2023-02-21T03:57:23;81.27;;;41.60;;
5730;SDS011;2890;51.950;7.668;2023-02-21T03:59:50;87.13;;;42.80;;
5730;SDS011;2890;51.950;7.668;2023-02-21T04:02:16;90.57;;;43.17;;
5730;SDS011;2890;51.950;7.668;2023-02-21T04:04:43;86.00;;;42.97;;
5730;SDS011;2890;51.950;7.668;2023-02-21T04:07:12;84.60;;;42.23;;
5730;SDS011;2890;51.950;7.668;2023-02-21T04:09:38;89.40;;;42.63;;
5730;SDS011;2890;51.950;7.668;2023-02-21T04:12:06;92.83;;;41.83;;
5730;SDS011;2890;51.950;7.668;2023-02-21T04:14:33;85.37;;;43.13;;
5730;SDS011;2890;51.950;7.668;2023-02-21T04:17:00;91.07;;;43.27;;
5730;SDS011;2890;51.950;7.668;2023-02-21T04:19:26;87.10;;;41.20;;
5730;SDS011;2890;51.950;7.668;2023-02-21T04:21:53;91.27;;;42.30;;
5730;SDS011;2890;51.950;7.668;2023-02-21T04:24:19;84.70;;;44.13;;
5730;SDS011;2890;51.950;7.668;2023-02-21T04:26:45;96.37;;;45.10;;
5730;SDS011;2890;51.950;7.668;2023-02-21T04:29:14;99.83;;;44.93;;
5730;SDS011;2890;51.950;7.668;2023-02-21T04:31:40;94.93;;;43.13;;
5730;SDS011;2890;51.950;7.668;2023-02-21T04:34:07;95.77;;;45.23;;
5730;SDS011;2890;51.950;7.668;2023-02-21T04:36:33;100.87;;;46.03;;
5730;SDS011;2890;51.950;7.668;2023-02-21T04:39:01;106.17;;;44.87;;
5730;SDS011;2890;51.950;7.668;2023-02-21T04:41:27;96.70;;;44.57;;
5730;SDS011;2890;51.950;7.668;2023-02-21T04:43:54;103.23;;;47.33;;
5730;SDS011;2890;51.950;7.668;2023-02-21T04:46:21;103.17;;;45.83;;
5730;SDS011;2890;51.950;7.668;2023-02-21T04:48:49;119.50;;;48.40;;
5730;SDS011;2890;51.950;7.668;2023-02-21T04:51:17;113.93;;;47.93;;
5730;SDS011;2890;51.950;7.668;2023-02-21T04:53:46;108.70;;;47.00;;
5730;SDS011;2890;51.950;7.668;2023-02-21T04:56:13;107.37;;;46.33;;
5730;SDS011;2890;51.950;7.668;2023-02-21T04:58:40;117.43;;;46.63;;
5730;SDS011;2890;51.950;7.668;2023-02-21T05:01:07;122.20;;;48.60;;
5730;SDS011;2890;51.950;7.668;2023-02-21T05:03:34;112.57;;;47.10;;
5730;SDS011;2890;51.950;7.668;2023-02-21T05:06:01;128.90;;;48.43;;
5730;SDS011;2890;51.950;7.668;2023-02-21T05:08:27;123.20;;;47.63;;
5730;SDS011;2890;51.950;7.668;2023-02-21T05:10:54;122.73;;;47.70;;
5730;SDS011;2890;51.950;7.668;2023-02-21T05:13:21;124.67;;;48.23;;
5730;SDS011;2890;51.950;7.668;2023-02-21T05:15:47;123.00;;;45.47;;
5730;SDS011;2890;51.950;7.668;2023-02-21T05:18:14;137.93;;;49.13;;
5730;SDS011;2890;51.950;7.668;2023-02-21T05:20:48;127.43;;;47.20;;
5730;SDS011;2890;51.950;7.668;2023-02-21T05:23:14;140.93;;;48.63;;
5730;SDS011;2890;51.950;7.668;2023-02-21T05:25:42;134.07;;;49.63;;
5730;SDS011;2890;51.950;7.668;2023-02-21T05:28:09;131.17;;;48.40;;
5730;SDS011;2890;51.950;7.668;2023-02-21T05:30:36;135.53;;;49.13;;
5730;SDS011;2890;51.950;7.668;2023-02-21T05:33:02;131.17;;;48.13;;
5730;SDS011;2890;51.950;7.668;2023-02-21T05:35:29;139.93;;;47.80;;
5730;SDS011;2890;51.950;7.668;2023-02-21T05:37:56;137.13;;;46.33;;
5730;SDS011;2890;51.950;7.668;2023-02-21T05:40:23;120.23;;;45.60;;
5730;SDS011;2890;51.950;7.668;2023-02-21T05:42:49;149.03;;;47.73;;
5730;SDS011;2890;51.950;7.668;2023-02-21T05:45:16;145.63;;;47.27;;
5730;SDS011;2890;51.950;7.668;2023-02-21T05:47:43;140.20;;;46.87;;
5730;SDS011;2890;51.950;7.668;2023-02-21T05:50:10;182.73;;;51.77;;
5730;SDS011;2890;51.950;7.668;2023-02-21T05:52:36;160.73;;;51.50;;
5730;SDS011;2890;51.950;7.668;2023-02-21T05:55:04;155.03;;;49.87;;
5730;SDS011;2890;51.950;7.668;2023-02-21T05:57:34;172.93;;;50.87;;
5730;SDS011;2890;51.950;7.668;2023-02-21T06:00:03;154.33;;;48.80;;
5730;SDS011;2890;51.950;7.668;2023-02-21T06:02:30;165.87;;;50.20;;
5730;SDS011;2890;51.950;7.668;2023-02-21T06:04:57;141.43;;;49.53;;
5730;SDS011;2890;51.950;7.668;2023-02-21T06:07:23;169.20;;;51.67;;
5730;SDS011;2890;51.950;7.668;2023-02-21T06:09:49;164.20;;;51.63;;
5730;SDS011;2890;51.950;7.668;2023-02-21T06:12:17;158.33;;;49.17;;
5730;SDS011;2890;51.950;7.668;2023-02-21T06:14:43;150.60;;;49.53;;
5730;SDS011;2890;51.950;7.668;2023-02-21T06:17:10;144.43;;;47.50;;
5730;SDS011;2890;51.950;7.668;2023-02-21T06:19:36;132.87;;;47.03;;
5730;SDS011;2890;51.950;7.668;2023-02-21T06:22:03;169.30;;;51.10;;
5730;SDS011;2890;51.950;7.668;2023-02-21T06:24:29;141.73;;;48.57;;
5730;SDS011;2890;51.950;7.668;2023-02-21T06:26:55;141.17;;;46.63;;
5730;SDS011;2890;51.950;7.668;2023-02-21T06:29:23;156.43;;;47.67;;
5730;SDS011;2890;51.950;7.668;2023-02-21T06:31:54;139.53;;;48.27;;
5730;SDS011;2890;51.950;7.668;2023-02-21T06:34:21;143.73;;;44.53;;
5730;SDS011;2890;51.950;7.668;2023-02-21T06:36:50;138.67;;;46.27;;
5730;SDS011;2890;51.950;7.668;2023-02-21T06:39:16;162.60;;;48.70;;
5730;SDS011;2890;51.950;7.668;2023-02-21T06:41:43;145.90;;;45.73;;
5730;SDS011;2890;51.950;7.668;2023-02-21T06:44:09;127.10;;;45.00;;
5730;SDS011;2890;51.950;7.668;2023-02-21T06:46:37;146.90;;;45.60;;
5730;SDS011;2890;51.950;7.668;2023-02-21T06:49:04;147.63;;;47.53;;
5730;SDS011;2890;51.950;7.668;2023-02-21T06:51:32;144.93;;;44.60;;
5730;SDS011;2890;51.950;7.668;2023-02-21T06:53:59;137.87;;;43.87;;
5730;SDS011;2890;51.950;7.668;2023-02-21T06:56:26;137.67;;;46.07;;
5730;SDS011;2890;51.950;7.668;2023-02-21T06:58:53;130.53;;;44.00;;
5730;SDS011;2890;51.950;7.668;2023-02-21T07:01:20;124.60;;;41.00;;
5730;SDS011;2890;51.950;7.668;2023-02-21T07:03:49;116.17;;;40.97;;
5730;SDS011;2890;51.950;7.668;2023-02-21T07:06:16;118.40;;;40.23;;
5730;SDS011;2890;51.950;7.668;2023-02-21T07:08:42;113.90;;;42.27;;
5730;SDS011;2890;51.950;7.668;2023-02-21T07:11:08;128.37;;;40.90;;
5730;SDS011;2890;51.950;7.668;2023-02-21T07:13:35;111.10;;;40.20;;
5730;SDS011;2890;51.950;7.668;2023-02-21T07:16:02;120.57;;;41.57;;
5730;SDS011;2890;51.950;7.668;2023-02-21T07:18:29;123.77;;;40.10;;
5730;SDS011;2890;51.950;7.668;2023-02-21T07:20:57;130.83;;;42.27;;
5730;SDS011;2890;51.950;7.668;2023-02-21T07:23:24;123.80;;;40.47;;
5730;SDS011;2890;51.950;7.668;2023-02-21T07:25:50;117.20;;;41.10;;
5730;SDS011;2890;51.950;7.668;2023-02-21T07:28:17;128.93;;;41.97;;
5730;SDS011;2890;51.950;7.668;2023-02-21T07:30:43;146.10;;;45.93;;
5730;SDS011;2890;51.950;7.668;2023-02-21T07:33:10;153.20;;;45.33;;
5730;SDS011;2890;51.950;7.668;2023-02-21T07:35:37;161.90;;;48.40;;
5730;SDS011;2890;51.950;7.668;2023-02-21T07:38:04;167.23;;;50.00;;
5730;SDS011;2890;51.950;7.668;2023-02-21T07:40:31;163.50;;;50.53;;
5730;SDS011;2890;51.950;7.668;2023-02-21T07:42:57;153.57;;;44.83;;
5730;SDS011;2890;51.950;7.668;2023-02-21T07:45:24;161.20;;;48.60;;
5730;SDS011;2890;51.950;7.668;2023-02-21T07:47:50;160.47;;;48.60;;
5730;SDS011;2890;51.950;7.668;2023-02-21T07:50:17;145.63;;;46.60;;
5730;SDS011;2890;51.950;7.668;2023-02-21T07:52:44;163.40;;;48.17;;
5730;SDS011;2890;51.950;7.668;2023-02-21T07:55:13;161.03;;;48.87;;
5730;SDS011;2890;51.950;7.668;2023-02-21T07:57:39;159.73;;;47.97;;
5730;SDS011;2890;51.950;7.668;2023-02-21T08:00:06;179.70;;;50.83;;
5730;SDS011;2890;51.950;7.668;2023-02-21T08:02:33;169.37;;;50.40;;
5730;SDS011;2890;51.950;7.668;2023-02-21T08:05:00;167.10;;;49.10;;
5730;SDS011;2890;51.950;7.668;2023-02-21T08:07:26;174.03;;;50.63;;
5730;SDS011;2890;51.950;7.668;2023-02-21T08:09:54;167.13;;;48.63;;
5730;SDS011;2890;51.950;7.668;2023-02-21T08:12:22;168.50;;;49.27;;
5730;SDS011;2890;51.950;7.668;2023-02-21T08:14:48;169.47;;;49.30;;
5730;SDS011;2890;51.950;7.668;2023-02-21T08:17:15;172.77;;;50.90;;
5730;SDS011;2890;51.950;7.668;2023-02-21T08:19:41;166.53;;;49.30;;
5730;SDS011;2890;51.950;7.668;2023-02-21T08:22:08;153.03;;;48.47;;
5730;SDS011;2890;51.950;7.668;2023-02-21T08:24:34;198.50;;;53.20;;
5730;SDS011;2890;51.950;7.668;2023-02-21T08:27:02;155.37;;;49.00;;
5730;SDS011;2890;51.950;7.668;2023-02-21T08:29:30;168.13;;;49.53;;
5730;SDS011;2890;51.950;7.668;2023-02-21T08:31:56;147.97;;;45.53;;
5730;SDS011;2890;51.950;7.668;2023-02-21T08:34:23;159.77;;;48.23;;
5730;SDS011;2890;51.950;7.668;2023-02-21T08:36:49;164.47;;;50.27;;
5730;SDS011;2890;51.950;7.668;2023-02-21T08:39:16;167.60;;;51.50;;
5730;SDS011;2890;51.950;7.668;2023-02-21T08:41:43;148.30;;;48.87;;
5730;SDS011;2890;51.950;7.668;2023-02-21T08:44:11;169.33;;;49.93;;
5730;SDS011;2890;51.950;7.668;2023-02-21T08:46:41;166.90;;;49.97;;
5730;SDS011;2890;51.950;7.668;2023-02-21T08:49:08;174.17;;;50.50;;
5730;SDS011;2890;51.950;7.668;2023-02-21T08:51:35;160.67;;;49.60;;
5730;SDS011;2890;51.950;7.668;2023-02-21T08:54:02;158.60;;;48.80;;
5730;SDS011;2890;51.950;7.668;2023-02-21T08:56:29;156.73;;;46.93;;
5730;SDS011;2890;51.950;7.668;2023-02-21T08:58:55;165.10;;;47.63;;
5730;SDS011;2890;51.950;7.668;2023-02-21T09:01:22;167.70;;;49.07;;
5730;SDS011;2890;51.950;7.668;2023-02-21T09:03:50;152.40;;;45.97;;
5730;SDS011;2890;51.950;7.668;2023-02-21T09:06:17;168.13;;;49.17;;
5730;SDS011;2890;51.950;7.668;2023-02-21T09:08:43;177.43;;;48.13;;
5730;SDS011;2890;51.950;7.668;2023-02-21T09:11:10;172.97;;;48.50;;
5730;SDS011;2890;51.950;7.668;2023-02-21T09:13:36;167.97;;;50.27;;
5730;SDS011;2890;51.950;7.668;2023-02-21T09:16:03;189.70;;;49.70;;
5730;SDS011;2890;51.950;7.668;2023-02-21T09:18:30;188.43;;;48.40;;
5730;SDS011;2890;51.950;7.668;2023-02-21T09:20:58;171.43;;;47.57;;
5730;SDS011;2890;51.950;7.668;2023-02-21T09:23:25;166.20;;;47.97;;
5730;SDS011;2890;51.950;7.668;2023-02-21T09:25:53;161.43;;;46.40;;
5730;SDS011;2890;51.950;7.668;2023-02-21T09:28:20;142.50;;;45.30;;
5730;SDS011;2890;51.950;7.668;2023-02-21T09:30:47;152.90;;;46.57;;
5730;SDS011;2890;51.950;7.668;2023-02-21T09:33:14;176.00;;;48.13;;
5730;SDS011;2890;51.950;7.668;2023-02-21T09:35:40;189.80;;;49.37;;
5730;SDS011;2890;51.950;7.668;2023-02-21T09:38:08;162.10;;;45.97;;
5730;SDS011;2890;51.950;7.668;2023-02-21T09:40:35;160.83;;;47.37;;
5730;SDS011;2890;51.950;7.668;2023-02-21T09:43:11;130.93;;;41.67;;
5730;SDS011;2890;51.950;7.668;2023-02-21T09:45:40;137.80;;;43.37;;
5730;SDS011;2890;51.950;7.668;2023-02-21T09:48:10;156.13;;;44.97;;
5730;SDS011;2890;51.950;7.668;2023-02-21T09:50:40;147.20;;;42.27;;
5730;SDS011;2890;51.950;7.668;2023-02-21T09:53:10;135.37;;;42.53;;
5730;SDS011;2890;51.950;7.668;2023-02-21T09:55:38;136.20;;;42.93;;
5730;SDS011;2890;51.950;7.668;2023-02-21T09:58:07;114.80;;;39.60;;
5730;SDS011;2890;51.950;7.668;2023-02-21T10:00:36;129.83;;;40.43;;
5730;SDS011;2890;51.950;7.668;2023-02-21T10:03:07;128.63;;;39.37;;
5730;SDS011;2890;51.950;7.668;2023-02-21T10:05:41;133.27;;;40.17;;
5730;SDS011;2890;51.950;7.668;2023-02-21T10:08:13;112.30;;;37.03;;
5730;SDS011;2890;51.950;7.668;2023-02-21T10:10:45;114.07;;;37.20;;
5730;SDS011;2890;51.950;7.668;2023-02-21T10:13:20;118.43;;;38.03;;
5730;SDS011;2890;51.950;7.668;2023-02-21T10:15:52;102.93;;;35.83;;
5730;SDS011;2890;51.950;7.668;2023-02-21T10:18:23;105.20;;;36.57;;
5730;SDS011;2890;51.950;7.668;2023-02-21T10:20:54;113.07;;;37.63;;
5730;SDS011;2890;51.950;7.668;2023-02-21T10:23:23;103.23;;;35.07;;
5730;SDS011;2890;51.950;7.668;2023-02-21T10:25:54;101.67;;;34.10;;
5730;SDS011;2890;51.950;7.668;2023-02-21T10:28:24;93.20;;;32.43;;
5730;SDS011;2890;51.950;7.668;2023-02-21T10:30:51;101.20;;;34.37;;
5730;SDS011;2890;51.950;7.668;2023-02-21T10:33:21;94.77;;;33.23;;
5730;SDS011;2890;51.950;7.668;2023-02-21T10:35:47;90.23;;;32.53;;
5730;SDS011;2890;51.950;7.668;2023-02-21T10:38:15;96.10;;;33.23;;
5730;SDS011;2890;51.950;7.668;2023-02-21T10:40:46;77.43;;;28.67;;
5730;SDS011;2890;51.950;7.668;2023-02-21T10:43:15;87.30;;;29.43;;
5730;SDS011;2890;51.950;7.668;2023-02-21T10:45:44;74.13;;;29.10;;
5730;SDS011;2890;51.950;7.668;2023-02-21T10:48:11;73.37;;;28.40;;
5730;SDS011;2890;51.950;7.668;2023-02-21T10:50:39;72.90;;;29.27;;
5730;SDS011;2890;51.950;7.668;2023-02-21T10:53:07;88.60;;;31.97;;
5730;SDS011;2890;51.950;7.668;2023-02-21T10:55:34;81.60;;;30.97;;
5730;SDS011;2890;51.950;7.668;2023-02-21T10:58:07;70.83;;;27.40;;
5730;SDS011;2890;51.950;7.668;2023-02-21T11:00:35;67.27;;;26.70;;
5730;SDS011;2890;51.950;7.668;2023-02-21T11:03:03;72.53;;;26.53;;
5730;SDS011;2890;51.950;7.668;2023-02-21T11:05:31;71.60;;;27.03;;
5730;SDS011;2890;51.950;7.668;2023-02-21T11:08:01;72.03;;;28.83;;
5730;SDS011;2890;51.950;7.668;2023-02-21T11:10:30;65.97;;;26.03;;
5730;SDS011;2890;51.950;7.668;2023-02-21T11:13:06;66.03;;;26.53;;
5730;SDS011;2890;51.950;7.668;2023-02-21T11:15:39;63.03;;;25.27;;
5730;SDS011;2890;51.950;7.668;2023-02-21T11:18:13;66.17;;;26.00;;
5730;SDS011;2890;51.950;7.668;2023-02-21T11:20:41;53.30;;;23.10;;
5730;SDS011;2890;51.950;7.668;2023-02-21T11:23:21;60.33;;;25.57;;
5730;SDS011;2890;51.950;7.668;2023-02-21T11:25:51;55.80;;;24.73;;
5730;SDS011;2890;51.950;7.668;2023-02-21T11:28:26;59.90;;;24.93;;
5730;SDS011;2890;51.950;7.668;2023-02-21T11:31:04;51.47;;;23.50;;
5730;SDS011;2890;51.950;7.668;2023-02-21T11:33:35;49.13;;;21.83;;
5730;SDS011;2890;51.950;7.668;2023-02-21T11:36:08;45.33;;;21.73;;
5730;SDS011;2890;51.950;7.668;2023-02-21T11:38:42;46.83;;;21.40;;
5730;SDS011;2890;51.950;7.668;2023-02-21T11:41:15;49.40;;;21.97;;
5730;SDS011;2890;51.950;7.668;2023-02-21T11:43:48;46.33;;;22.03;;
5730;SDS011;2890;51.950;7.668;2023-02-21T11:46:16;42.77;;;21.37;;
5730;SDS011;2890;51.950;7.668;2023-02-21T11:48:50;44.67;;;22.47;;
5730;SDS011;2890;51.950;7.668;2023-02-21T11:51:25;43.37;;;21.40;;
5730;SDS011;2890;51.950;7.668;2023-02-21T11:53:55;45.43;;;21.20;;
5730;SDS011;2890;51.950;7.668;2023-02-21T11:56:27;42.47;;;20.83;;
5730;SDS011;2890;51.950;7.668;2023-02-21T11:59:02;43.40;;;22.23;;
5730;SDS011;2890;51.950;7.668;2023-02-21T12:01:37;48.07;;;21.93;;
5730;SDS011;2890;51.950;7.668;2023-02-21T12:04:14;50.50;;;22.40;;
5730;SDS011;2890;51.950;7.668;2023-02-21T12:06:48;46.90;;;21.73;;
5730;SDS011;2890;51.950;7.668;2023-02-21T12:09:22;44.67;;;20.77;;
5730;SDS011;2890;51.950;7.668;2023-02-21T12:11:55;46.13;;;20.13;;
5730;SDS011;2890;51.950;7.668;2023-02-21T12:17:25;48.57;;;19.43;;
5730;SDS011;2890;51.950;7.668;2023-02-21T12:20:02;39.17;;;19.70;;
5730;SDS011;2890;51.950;7.668;2023-02-21T12:22:50;52.10;;;20.80;;
5730;SDS011;2890;51.950;7.668;2023-02-21T12:25:33;44.23;;;20.80;;
5730;SDS011;2890;51.950;7.668;2023-02-21T12:28:10;43.33;;;18.90;;
5730;SDS011;2890;51.950;7.668;2023-02-21T12:30:50;33.43;;;16.87;;
5730;SDS011;2890;51.950;7.668;2023-02-21T12:33:29;42.27;;;19.47;;
5730;SDS011;2890;51.950;7.668;2023-02-21T12:38:57;36.90;;;17.90;;
5730;SDS011;2890;51.950;7.668;2023-02-21T12:44:25;40.77;;;18.37;;
5730;SDS011;2890;51.950;7.668;2023-02-21T12:46:59;37.37;;;18.67;;
5730;SDS011;2890;51.950;7.668;2023-02-21T12:49:28;39.30;;;18.83;;
5730;SDS011;2890;51.950;7.668;2023-02-21T12:52:04;36.23;;;18.27;;
5730;SDS011;2890;51.950;7.668;2023-02-21T12:54:35;39.67;;;18.43;;
5730;SDS011;2890;51.950;7.668;2023-02-21T12:57:06;35.40;;;17.57;;
5730;SDS011;2890;51.950;7.668;2023-02-21T12:59:41;31.33;;;15.77;;
5730;SDS011;2890;51.950;7.668;2023-02-21T13:02:17;28.83;;;16.37;;
5730;SDS011;2890;51.950;7.668;2023-02-21T13:04:47;34.53;;;17.37;;
5730;SDS011;2890;51.950;7.668;2023-02-21T13:07:19;35.83;;;17.83;;
5730;SDS011;2890;51.950;7.668;2023-02-21T13:09:52;35.33;;;17.13;;
5730;SDS011;2890;51.950;7.668;2023-02-21T13:12:22;35.50;;;19.73;;
5730;SDS011;2890;51.950;7.668;2023-02-21T13:14:52;37.50;;;17.83;;
5730;SDS011;2890;51.950;7.668;2023-02-21T13:17:21;35.07;;;17.27;;
5730;SDS011;2890;51.950;7.668;2023-02-21T13:19:49;36.40;;;19.50;;
5730;SDS011;2890;51.950;7.668;2023-02-21T13:25:05;34.03;;;17.93;;
5730;SDS011;2890;51.950;7.668;2023-02-21T13:30:27;38.40;;;20.27;;
5730;SDS011;2890;51.950;7.668;2023-02-21T13:33:04;32.33;;;18.43;;
5730;SDS011;2890;51.950;7.668;2023-02-21T13:35:31;35.33;;;18.80;;
5730;SDS011;2890;51.950;7.668;2023-02-21T13:37:59;40.03;;;20.47;;
5730;SDS011;2890;51.950;7.668;2023-02-21T13:40:30;37.37;;;20.63;;
5730;SDS011;2890;51.950;7.668;2023-02-21T13:42:59;37.20;;;20.70;;
5730;SDS011;2890;51.950;7.668;2023-02-21T13:45:28;39.10;;;21.77;;
5730;SDS011;2890;51.950;7.668;2023-02-21T13:50:57;41.20;;;21.43;;
5730;SDS011;2890;51.950;7.668;2023-02-21T13:53:25;40.90;;;22.37;;
5730;SDS011;2890;51.950;7.668;2023-02-21T13:58:44;43.53;;;23.23;;
5730;SDS011;2890;51.950;7.668;2023-02-21T14:07:37;52.30;;;25.20;;
5730;SDS011;2890;51.950;7.668;2023-02-21T14:10:22;57.47;;;27.73;;
5730;SDS011;2890;51.950;7.668;2023-02-21T14:12:54;56.93;;;27.63;;
5730;SDS011;2890;51.950;7.668;2023-02-21T14:15:23;56.87;;;26.90;;
5730;SDS011;2890;51.950;7.668;2023-02-21T14:17:56;55.97;;;27.83;;
5730;SDS011;2890;51.950;7.668;2023-02-21T14:20:24;52.07;;;26.63;;
5730;SDS011;2890;51.950;7.668;2023-02-21T14:22:52;56.00;;;27.67;;
5730;SDS011;2890;51.950;7.668;2023-02-21T14:25:23;52.30;;;26.37;;
5730;SDS011;2890;51.950;7.668;2023-02-21T14:27:52;59.87;;;27.80;;
5730;SDS011;2890;51.950;7.668;2023-02-21T14:30:27;58.47;;;29.00;;
5730;SDS011;2890;51.950;7.668;2023-02-21T14:32:57;58.83;;;29.33;;
5730;SDS011;2890;51.950;7.668;2023-02-21T14:35:32;57.03;;;28.93;;
5730;SDS011;2890;51.950;7.668;2023-02-21T14:38:02;52.90;;;28.33;;
5730;SDS011;2890;51.950;7.668;2023-02-21T14:40:39;55.00;;;27.13;;
5730;SDS011;2890;51.950;7.668;2023-02-21T14:43:21;60.53;;;30.07;;
5730;SDS011;2890;51.950;7.668;2023-02-21T14:46:02;56.97;;;29.50;;
5730;SDS011;2890;51.950;7.668;2023-02-21T14:58:00;69.50;;;32.97;;
5730;SDS011;2890;51.950;7.668;2023-02-21T15:00:53;70.30;;;33.50;;
5730;SDS011;2890;51.950;7.668;2023-02-21T15:03:28;75.10;;;33.80;;
5730;SDS011;2890;51.950;7.668;2023-02-21T15:05:59;63.57;;;32.40;;
5730;SDS011;2890;51.950;7.668;2023-02-21T15:08:29;79.37;;;35.13;;
5730;SDS011;2890;51.950;7.668;2023-02-21T15:11:12;72.53;;;33.23;;
5730;SDS011;2890;51.950;7.668;2023-02-21T15:13:43;72.93;;;34.30;;
5730;SDS011;2890;51.950;7.668;2023-02-21T15:16:11;66.07;;;32.77;;
5730;SDS011;2890;51.950;7.668;2023-02-21T15:18:39;66.27;;;32.60;;
5730;SDS011;2890;51.950;7.668;2023-02-21T15:21:11;63.30;;;31.70;;
5730;SDS011;2890;51.950;7.668;2023-02-21T15:23:42;66.87;;;31.40;;
5730;SDS011;2890;51.950;7.668;2023-02-21T15:26:17;67.87;;;30.47;;
5730;SDS011;2890;51.950;7.668;2023-02-21T15:28:45;61.97;;;29.90;;
5730;SDS011;2890;51.950;7.668;2023-02-21T15:31:12;63.90;;;31.03;;
5730;SDS011;2890;51.950;7.668;2023-02-21T15:33:40;63.93;;;31.63;;
5730;SDS011;2890;51.950;7.668;2023-02-21T15:36:13;65.00;;;33.03;;
5730;SDS011;2890;51.950;7.668;2023-02-21T15:38:41;62.63;;;32.77;;
5730;SDS011;2890;51.950;7.668;2023-02-21T15:41:12;60.87;;;30.47;;
5730;SDS011;2890;51.950;7.668;2023-02-21T15:43:44;51.50;;;29.43;;
5730;SDS011;2890;51.950;7.668;2023-02-21T15:46:15;54.80;;;29.17;;
5730;SDS011;2890;51.950;7.668;2023-02-21T15:48:43;53.27;;;28.40;;
5730;SDS011;2890;51.950;7.668;2023-02-21T15:51:10;51.87;;;27.63;;
5730;SDS011;2890;51.950;7.668;2023-02-21T15:53:38;53.87;;;27.90;;
5730;SDS011;2890;51.950;7.668;2023-02-21T15:56:15;66.50;;;32.00;;